createdAt,value
2023-08-08T00:01:57.062Z,4.53
2023-08-08T00:04:24.613Z,4.57
2023-08-08T00:06:51.889Z,4.70
2023-08-08T00:09:19.184Z,4.80
2023-08-08T00:11:46.557Z,4.30
2023-08-08T00:14:13.832Z,4.13
2023-08-08T00:16:41.562Z,3.95
2023-08-08T00:19:09.151Z,3.83
2023-08-08T00:21:36.472Z,3.40
2023-08-08T00:24:03.902Z,3.65
2023-08-08T00:26:31.268Z,4.07
2023-08-08T00:28:58.775Z,3.50
2023-08-08T00:31:26.251Z,3.75
2023-08-08T00:33:53.505Z,3.63
2023-08-08T00:36:20.917Z,3.70
2023-08-08T00:38:49.684Z,3.53
2023-08-08T00:41:17.232Z,3.60
2023-08-08T00:43:44.855Z,3.47
2023-08-08T00:46:12.959Z,3.15
2023-08-08T00:48:40.425Z,3.08
2023-08-08T00:51:07.842Z,3.28
2023-08-08T00:53:35.195Z,3.25
2023-08-08T00:56:02.682Z,3.30
2023-08-08T00:58:30.138Z,3.30
2023-08-08T01:01:01.084Z,3.42
2023-08-08T01:03:28.657Z,3.20
2023-08-08T01:06:25.543Z,3.45
2023-08-08T01:09:10.712Z,3.03
2023-08-08T01:11:38.655Z,2.70
2023-08-08T01:14:07.752Z,3.00
2023-08-08T01:16:35.345Z,3.22
2023-08-08T01:19:03.225Z,3.05
2023-08-08T01:21:36.855Z,3.72
2023-08-08T01:24:23.274Z,2.78
2023-08-08T01:26:51.565Z,3.03
2023-08-08T01:29:18.897Z,2.97
2023-08-08T01:31:46.508Z,3.05
2023-08-08T01:34:15.360Z,3.10
2023-08-08T01:36:54.620Z,2.97
2023-08-08T01:39:27.680Z,3.08
2023-08-08T01:42:00.135Z,3.28
2023-08-08T01:44:29.629Z,3.00
2023-08-08T01:46:57.059Z,2.95
2023-08-08T01:49:24.374Z,2.70
2023-08-08T01:51:53.519Z,3.05
2023-08-08T01:54:21.288Z,2.85
2023-08-08T01:56:48.672Z,3.13
2023-08-08T01:59:16.340Z,2.88
2023-08-08T02:01:44.510Z,3.25
2023-08-08T02:04:11.905Z,2.83
2023-08-08T02:06:39.300Z,2.70
2023-08-08T02:09:07.180Z,2.55
2023-08-08T02:11:36.139Z,2.78
2023-08-08T02:14:03.425Z,2.67
2023-08-08T02:16:30.902Z,2.80
2023-08-08T02:18:58.240Z,2.45
2023-08-08T02:21:25.668Z,2.80
2023-08-08T02:23:53.174Z,2.60
2023-08-08T02:26:20.994Z,2.58
2023-08-08T02:28:49.383Z,2.55
2023-08-08T02:31:22.003Z,2.65
2023-08-08T02:33:51.771Z,2.38
2023-08-08T02:36:19.779Z,2.75
2023-08-08T02:38:47.253Z,2.65
2023-08-08T02:41:14.637Z,2.85
2023-08-08T02:43:43.114Z,2.20
2023-08-08T02:46:10.509Z,2.50
2023-08-08T02:48:37.971Z,2.50
2023-08-08T02:51:05.287Z,2.78
2023-08-08T02:53:33.235Z,2.45
2023-08-08T02:56:00.608Z,2.63
2023-08-08T02:58:31.531Z,2.40
2023-08-08T03:01:00.440Z,2.15
2023-08-08T03:03:27.840Z,2.88
2023-08-08T03:05:56.084Z,2.92
2023-08-08T03:08:23.876Z,2.40
2023-08-08T03:10:51.278Z,5.38
2023-08-08T03:13:18.945Z,2.50
2023-08-08T03:15:46.529Z,2.60
2023-08-08T03:18:13.968Z,2.70
2023-08-08T03:20:41.490Z,2.20
2023-08-08T03:23:10.129Z,2.00
2023-08-08T03:25:39.266Z,2.20
2023-08-08T03:28:06.706Z,2.38
2023-08-08T03:30:34.581Z,2.25
2023-08-08T03:33:01.916Z,2.13
2023-08-08T03:35:30.131Z,2.25
2023-08-08T03:37:57.492Z,2.20
2023-08-08T03:40:25.237Z,2.28
2023-08-08T03:42:52.584Z,2.65
2023-08-08T03:45:20.048Z,3.83
2023-08-08T03:47:47.721Z,3.10
2023-08-08T03:50:15.059Z,2.88
2023-08-08T03:52:42.403Z,2.72
2023-08-08T03:55:12.683Z,2.20
2023-08-08T03:57:40.996Z,2.70
2023-08-08T04:00:12.687Z,2.85
2023-08-08T04:02:42.914Z,2.55
2023-08-08T04:05:10.317Z,2.83
2023-08-08T04:07:37.609Z,2.60
2023-08-08T04:10:05.357Z,2.97
2023-08-08T04:12:34.092Z,2.45
2023-08-08T04:15:01.808Z,2.67
2023-08-08T04:17:29.734Z,2.25
2023-08-08T04:19:57.061Z,2.40
2023-08-08T04:22:24.432Z,2.97
2023-08-08T04:24:51.759Z,3.40
2023-08-08T04:27:19.458Z,2.92
2023-08-08T04:29:46.814Z,2.55
2023-08-08T04:32:14.169Z,2.45
2023-08-08T04:34:41.613Z,2.80
2023-08-08T04:37:08.942Z,2.95
2023-08-08T04:39:36.252Z,2.83
2023-08-08T04:42:04.071Z,3.25
2023-08-08T04:44:31.707Z,2.97
2023-08-08T04:46:59.195Z,2.97
2023-08-08T04:49:26.469Z,2.95
2023-08-08T04:51:53.815Z,3.97
2023-08-08T04:54:21.182Z,3.35
2023-08-08T04:56:48.490Z,4.45
2023-08-08T04:59:15.982Z,3.83
2023-08-08T05:01:43.297Z,3.78
2023-08-08T05:04:11.288Z,4.07
2023-08-08T05:06:38.659Z,4.18
2023-08-08T05:09:05.979Z,3.03
2023-08-08T05:11:33.232Z,3.17
2023-08-08T05:14:00.560Z,3.67
2023-08-08T05:16:28.093Z,2.83
2023-08-08T05:18:55.489Z,2.90
2023-08-08T05:21:23.163Z,2.85
2023-08-08T05:23:50.771Z,2.97
2023-08-08T05:26:18.628Z,2.85
2023-08-08T05:28:46.026Z,3.10
2023-08-08T05:31:13.391Z,3.00
2023-08-08T05:33:40.659Z,2.67
2023-08-08T05:36:07.993Z,3.20
2023-08-08T05:38:35.242Z,2.70
2023-08-08T05:41:02.546Z,2.85
2023-08-08T05:43:30.929Z,2.85
2023-08-08T05:45:58.450Z,2.75
2023-08-08T05:48:25.907Z,2.58
2023-08-08T05:50:53.207Z,2.40
2023-08-08T05:53:20.806Z,2.80
2023-08-08T05:55:48.166Z,2.90
2023-08-08T05:58:16.079Z,3.00
2023-08-08T06:00:44.022Z,2.88
2023-08-08T06:03:11.399Z,2.67
2023-08-08T06:05:39.046Z,2.85
2023-08-08T06:08:09.159Z,2.53
2023-08-08T06:10:36.491Z,2.88
2023-08-08T06:13:03.891Z,3.10
2023-08-08T06:15:31.268Z,2.20
2023-08-08T06:17:58.876Z,2.55
2023-08-08T06:20:26.353Z,2.30
2023-08-08T06:22:53.722Z,2.63
2023-08-08T06:25:21.090Z,2.65
2023-08-08T06:27:50.245Z,2.70
2023-08-08T06:30:17.939Z,2.90
2023-08-08T06:32:45.331Z,2.90
2023-08-08T06:35:13.628Z,2.65
2023-08-08T06:37:41.169Z,2.65
2023-08-08T06:40:09.243Z,2.72
2023-08-08T06:42:36.517Z,2.80
2023-08-08T06:45:04.412Z,2.88
2023-08-08T06:47:31.749Z,2.60
2023-08-08T06:49:59.029Z,3.15
2023-08-08T06:52:26.387Z,2.60
2023-08-08T06:54:53.666Z,2.50
2023-08-08T06:57:21.077Z,2.47
2023-08-08T06:59:51.838Z,3.00
2023-08-08T07:02:21.739Z,2.78
2023-08-08T07:04:49.233Z,2.45
2023-08-08T07:07:16.515Z,2.78
2023-08-08T07:09:44.555Z,2.60
2023-08-08T07:12:12.304Z,2.38
2023-08-08T07:14:39.706Z,2.50
2023-08-08T07:17:07.208Z,2.65
2023-08-08T07:19:34.549Z,2.58
2023-08-08T07:22:02.220Z,2.05
2023-08-08T07:24:30.001Z,2.35
2023-08-08T07:26:59.255Z,2.22
2023-08-08T07:29:27.150Z,2.40
2023-08-08T07:31:55.039Z,2.38
2023-08-08T07:34:22.388Z,2.47
2023-08-08T07:36:50.105Z,2.30
2023-08-08T07:39:17.519Z,2.65
2023-08-08T07:41:44.979Z,2.50
2023-08-08T07:44:12.286Z,2.45
2023-08-08T07:46:39.716Z,2.35
2023-08-08T07:49:07.802Z,2.83
2023-08-08T07:51:35.511Z,2.33
2023-08-08T07:54:03.615Z,2.60
2023-08-08T07:56:30.993Z,2.28
2023-08-08T07:58:58.580Z,2.50
2023-08-08T08:01:28.438Z,2.35
2023-08-08T08:03:55.852Z,2.50
2023-08-08T08:06:25.366Z,2.63
2023-08-08T08:08:56.491Z,2.60
2023-08-08T08:11:24.890Z,2.22
2023-08-08T08:13:52.932Z,2.30
2023-08-08T08:16:21.353Z,2.22
2023-08-08T08:18:50.193Z,2.58
2023-08-08T08:21:23.445Z,2.60
2023-08-08T08:23:52.515Z,2.55
2023-08-08T08:26:23.183Z,2.78
2023-08-08T08:28:52.297Z,2.60
2023-08-08T08:31:21.238Z,2.72
2023-08-08T08:33:49.222Z,2.40
2023-08-08T08:36:17.482Z,2.78
2023-08-08T08:38:45.092Z,2.60
2023-08-08T08:41:15.710Z,2.55
2023-08-08T08:43:43.361Z,2.67
2023-08-08T08:46:12.647Z,2.50
2023-08-08T08:48:40.048Z,2.30
2023-08-08T08:51:07.448Z,2.28
2023-08-08T08:53:36.297Z,2.15
2023-08-08T08:56:04.233Z,2.40
2023-08-08T08:58:31.808Z,2.42
2023-08-08T09:00:59.961Z,2.35
2023-08-08T09:03:27.856Z,2.45
2023-08-08T09:05:55.983Z,2.65
2023-08-08T09:08:23.832Z,2.47
2023-08-08T09:10:52.133Z,2.63
2023-08-08T09:13:19.453Z,2.70
2023-08-08T09:15:49.529Z,2.50
2023-08-08T09:18:17.859Z,2.83
2023-08-08T09:20:51.963Z,3.10
2023-08-08T09:23:19.310Z,2.83
2023-08-08T09:25:46.674Z,2.88
2023-08-08T09:28:14.234Z,2.85
2023-08-08T09:30:43.378Z,2.58
2023-08-08T09:33:14.448Z,2.60
2023-08-08T09:35:43.114Z,2.50
2023-08-08T09:38:11.784Z,2.70
2023-08-08T09:40:41.851Z,2.70
2023-08-08T09:43:12.905Z,3.97
2023-08-08T09:45:43.336Z,2.80
2023-08-08T09:48:11.460Z,2.53
2023-08-08T09:50:40.528Z,3.20
2023-08-08T09:53:08.252Z,2.85
2023-08-08T09:55:36.353Z,2.97
2023-08-08T09:58:04.184Z,3.00
2023-08-08T10:00:35.281Z,3.08
2023-08-08T10:03:03.360Z,3.00
2023-08-08T10:05:31.808Z,3.08
2023-08-08T10:07:59.487Z,2.80
2023-08-08T10:10:27.515Z,2.80
2023-08-08T10:12:55.009Z,3.10
2023-08-08T10:15:27.931Z,2.83
2023-08-08T10:17:59.369Z,2.70
2023-08-08T10:20:26.927Z,3.30
2023-08-08T10:22:57.347Z,2.90
2023-08-08T10:25:29.060Z,3.20
2023-08-08T10:28:24.594Z,3.20
2023-08-08T10:31:09.688Z,3.08
2023-08-08T10:33:44.403Z,3.30
2023-08-08T10:36:11.971Z,3.20
2023-08-08T10:38:50.460Z,3.20
2023-08-08T10:41:23.134Z,3.20
2023-08-08T10:43:58.373Z,3.05
2023-08-08T10:46:27.310Z,3.20
2023-08-08T10:48:57.521Z,3.30
2023-08-08T10:51:32.942Z,3.00
2023-08-08T10:54:04.174Z,3.20
2023-08-08T10:56:32.863Z,3.30
2023-08-08T10:59:00.153Z,3.60
2023-08-08T11:01:27.719Z,3.45
2023-08-08T11:03:58.617Z,3.70
2023-08-08T11:06:26.802Z,3.10
2023-08-08T11:08:55.744Z,3.70
2023-08-08T11:11:23.065Z,3.40
2023-08-08T11:13:53.396Z,3.28
2023-08-08T11:16:20.970Z,3.50
2023-08-08T11:18:49.067Z,3.30
2023-08-08T11:21:18.876Z,3.38
2023-08-08T11:23:48.271Z,3.30
2023-08-08T11:26:19.303Z,3.75
2023-08-08T11:28:53.463Z,3.47
2023-08-08T11:31:24.526Z,3.88
2023-08-08T11:33:53.550Z,3.80
2023-08-08T11:36:21.531Z,3.85
2023-08-08T11:38:49.935Z,3.42
2023-08-08T11:41:18.741Z,4.13
2023-08-08T11:43:47.580Z,3.35
2023-08-08T11:46:16.427Z,3.38
2023-08-08T11:48:44.144Z,3.38
2023-08-08T11:51:11.505Z,3.20
2023-08-08T11:53:51.144Z,3.70
2023-08-08T11:56:22.875Z,3.42
2023-08-08T11:58:53.423Z,3.75
2023-08-08T12:01:24.632Z,3.50
2023-08-08T12:03:52.172Z,3.60
2023-08-08T12:06:20.054Z,3.65
2023-08-08T12:08:49.173Z,3.58
2023-08-08T12:11:17.174Z,3.80
2023-08-08T12:13:45.604Z,3.85
2023-08-08T12:16:17.554Z,3.78
2023-08-08T12:18:50.002Z,3.70
2023-08-08T12:21:17.246Z,3.40
2023-08-08T12:23:44.611Z,3.85
2023-08-08T12:26:12.988Z,3.63
2023-08-08T12:28:40.354Z,4.00
2023-08-08T12:31:07.709Z,3.85
2023-08-08T12:33:35.001Z,3.70
2023-08-08T12:36:02.292Z,4.00
2023-08-08T12:38:29.904Z,4.00
2023-08-08T12:40:57.906Z,3.90
2023-08-08T12:43:25.492Z,4.20
2023-08-08T12:45:52.890Z,4.78
2023-08-08T12:48:20.212Z,3.95
2023-08-08T12:50:47.465Z,4.00
2023-08-08T12:53:14.889Z,4.22
2023-08-08T12:55:42.181Z,4.03
2023-08-08T12:58:09.972Z,4.18
2023-08-08T13:00:37.370Z,4.57
2023-08-08T13:03:05.383Z,4.30
2023-08-08T13:05:32.737Z,4.00
2023-08-08T13:08:00.046Z,4.07
2023-08-08T13:10:27.451Z,3.53
2023-08-08T13:12:56.387Z,4.28
2023-08-08T13:15:23.784Z,4.47
2023-08-08T13:17:51.157Z,4.22
2023-08-08T13:20:18.467Z,4.50
2023-08-08T13:22:45.780Z,4.15
2023-08-08T13:25:13.327Z,4.10
2023-08-08T13:27:40.624Z,4.00
2023-08-08T13:30:08.449Z,4.30
2023-08-08T13:32:35.915Z,4.72
2023-08-08T13:35:03.272Z,4.70
2023-08-08T13:37:30.735Z,4.60
2023-08-08T13:39:57.970Z,4.30
2023-08-08T13:42:25.277Z,4.78
2023-08-08T13:44:52.878Z,4.50
2023-08-08T13:47:21.429Z,4.30
2023-08-08T13:49:48.768Z,4.72
2023-08-08T13:52:16.101Z,4.30
2023-08-08T13:54:43.398Z,4.43
2023-08-08T13:57:10.791Z,4.32
2023-08-08T13:59:38.487Z,4.40
2023-08-08T14:02:05.813Z,4.32
2023-08-08T14:04:33.404Z,4.25
2023-08-08T14:07:00.699Z,4.13
2023-08-08T14:09:28.915Z,4.18
2023-08-08T14:11:56.248Z,4.30
2023-08-08T14:14:23.531Z,4.63
2023-08-08T14:16:50.881Z,4.45
2023-08-08T14:19:18.275Z,4.20
2023-08-08T14:21:45.926Z,4.30
2023-08-08T14:24:13.250Z,4.57
2023-08-08T14:26:40.571Z,5.32
2023-08-08T14:29:07.886Z,4.47
2023-08-08T14:31:40.700Z,4.45
2023-08-08T14:34:17.640Z,4.53
2023-08-08T14:36:45.200Z,4.68
2023-08-08T14:39:12.641Z,4.15
2023-08-08T14:41:40.135Z,4.57
2023-08-08T14:44:07.480Z,5.30
2023-08-08T14:46:35.792Z,4.70
2023-08-08T14:49:07.013Z,5.20
2023-08-08T14:51:34.273Z,4.32
2023-08-08T14:54:01.533Z,4.90
2023-08-08T14:56:28.819Z,5.05
2023-08-08T14:58:57.257Z,4.30
2023-08-08T15:01:26.136Z,4.43
2023-08-08T15:03:54.657Z,4.50
2023-08-08T15:06:22.051Z,4.88
2023-08-08T15:08:51.132Z,4.82
2023-08-08T15:11:18.498Z,4.72
2023-08-08T15:13:45.872Z,4.72
2023-08-08T15:16:13.651Z,4.28
2023-08-08T15:18:40.967Z,4.30
2023-08-08T15:21:08.292Z,4.68
2023-08-08T15:23:35.628Z,4.00
2023-08-08T15:26:03.028Z,4.50
2023-08-08T15:28:30.297Z,4.22
2023-08-08T15:30:57.734Z,4.90
2023-08-08T15:33:25.135Z,4.60
2023-08-08T15:35:52.701Z,4.88
2023-08-08T15:38:20.176Z,4.40
2023-08-08T15:40:47.774Z,4.43
2023-08-08T15:43:15.055Z,4.10
2023-08-08T15:45:42.376Z,4.72
2023-08-08T15:48:09.770Z,4.47
2023-08-08T15:50:37.159Z,4.13
2023-08-08T15:53:06.063Z,4.40
2023-08-08T15:55:34.316Z,4.75
2023-08-08T15:58:01.653Z,4.70
2023-08-08T16:00:29.369Z,5.03
2023-08-08T16:02:56.991Z,4.25
2023-08-08T16:05:24.357Z,4.20
2023-08-08T16:07:52.132Z,4.22
2023-08-08T16:10:19.481Z,4.00
2023-08-08T16:12:46.807Z,4.30
2023-08-08T16:15:14.379Z,4.00
2023-08-08T16:17:41.970Z,4.30
2023-08-08T16:20:09.769Z,4.40
2023-08-08T16:22:37.074Z,4.30
2023-08-08T16:25:05.052Z,4.15
2023-08-08T16:27:32.396Z,3.90
2023-08-08T16:29:59.976Z,4.10
2023-08-08T16:32:28.180Z,4.65
2023-08-08T16:34:55.798Z,3.90
2023-08-08T16:37:23.155Z,4.07
2023-08-08T16:39:50.661Z,4.32
2023-08-08T16:42:18.279Z,4.22
2023-08-08T16:44:45.533Z,4.05
2023-08-08T16:47:12.920Z,4.35
2023-08-08T16:49:40.899Z,3.90
2023-08-08T16:52:08.165Z,3.80
2023-08-08T16:54:35.540Z,4.30
2023-08-08T16:57:03.526Z,4.03
2023-08-08T16:59:30.879Z,3.90
2023-08-08T17:01:58.292Z,3.78
2023-08-08T17:04:25.768Z,4.00
2023-08-08T17:06:53.108Z,3.80
2023-08-08T17:09:20.435Z,3.85
2023-08-08T17:11:47.755Z,4.10
2023-08-08T17:14:15.270Z,3.80
2023-08-08T17:16:42.538Z,3.65
2023-08-08T17:19:11.060Z,4.10
2023-08-08T17:21:38.357Z,4.03
2023-08-08T17:24:05.957Z,3.65
2023-08-08T17:26:33.470Z,3.75
2023-08-08T17:29:00.735Z,3.88
2023-08-08T17:31:28.594Z,3.95
2023-08-08T17:33:57.096Z,3.70
2023-08-08T17:36:24.426Z,4.22
2023-08-08T17:38:51.648Z,3.85
2023-08-08T17:41:19.078Z,4.13
2023-08-08T17:43:46.386Z,4.00
2023-08-08T17:46:13.820Z,3.65
2023-08-08T17:48:41.173Z,3.83
2023-08-08T17:51:09.102Z,3.40
2023-08-08T17:53:36.860Z,3.47
2023-08-08T17:56:04.533Z,3.60
2023-08-08T17:58:31.879Z,3.65
2023-08-08T18:00:59.218Z,3.60
2023-08-08T18:03:26.537Z,3.33
2023-08-08T18:05:53.943Z,3.58
2023-08-08T18:08:21.249Z,3.80
2023-08-08T18:10:49.882Z,3.50
2023-08-08T18:13:17.215Z,3.90
2023-08-08T18:15:44.509Z,3.78
2023-08-08T18:18:12.032Z,3.90
2023-08-08T18:20:39.430Z,3.72
2023-08-08T18:23:06.815Z,3.20
2023-08-08T18:25:34.126Z,3.65
2023-08-08T18:28:01.499Z,3.33
2023-08-08T18:30:28.848Z,3.35
2023-08-08T18:32:56.605Z,3.45
2023-08-08T18:35:24.062Z,3.50
2023-08-08T18:37:51.457Z,3.92
2023-08-08T18:40:21.544Z,3.45
2023-08-08T18:42:49.188Z,3.03
2023-08-08T18:45:16.975Z,3.33
2023-08-08T18:47:44.386Z,3.40
2023-08-08T18:50:11.803Z,3.10
2023-08-08T18:52:39.220Z,3.30
2023-08-08T18:55:07.028Z,3.00
2023-08-08T18:57:35.047Z,3.28
2023-08-08T19:00:04.543Z,3.30
2023-08-08T19:02:32.391Z,3.17
2023-08-08T19:04:59.702Z,3.55
2023-08-08T19:07:27.015Z,3.30
2023-08-08T19:09:54.821Z,3.50
2023-08-08T19:12:22.628Z,3.55
2023-08-08T19:14:49.900Z,3.38
2023-08-08T19:17:17.479Z,3.40
2023-08-08T19:19:44.988Z,3.08
2023-08-08T19:22:12.407Z,3.50
2023-08-08T19:24:39.842Z,3.38
2023-08-08T19:27:07.300Z,3.75
2023-08-08T19:29:34.640Z,3.20
2023-08-08T19:32:02.367Z,3.20
2023-08-08T19:34:30.031Z,3.20
2023-08-08T19:36:57.663Z,3.60
2023-08-08T19:39:25.080Z,3.80
2023-08-08T19:41:52.921Z,3.25
2023-08-08T19:44:20.596Z,3.65
2023-08-08T19:46:48.203Z,3.45
2023-08-08T19:49:15.589Z,3.22
2023-08-08T19:51:42.940Z,3.40
2023-08-08T19:54:10.908Z,3.40
2023-08-08T19:56:38.358Z,3.50
2023-08-08T19:59:05.925Z,3.63
2023-08-08T20:01:33.596Z,3.17
2023-08-08T20:04:01.054Z,3.53
2023-08-08T20:06:28.844Z,3.45
2023-08-08T20:08:56.212Z,3.75
2023-08-08T20:11:23.983Z,3.38
2023-08-08T20:13:51.470Z,3.88
2023-08-08T20:16:19.046Z,3.67
2023-08-08T20:18:46.435Z,3.40
2023-08-08T20:21:14.663Z,3.55
2023-08-08T20:23:41.971Z,3.53
2023-08-08T20:26:09.300Z,4.10
2023-08-08T20:28:36.947Z,3.72
2023-08-08T20:31:04.278Z,3.40
2023-08-08T20:33:31.887Z,3.67
2023-08-08T20:35:59.200Z,3.50
2023-08-08T20:38:26.974Z,3.72
2023-08-08T20:40:54.307Z,3.50
2023-08-08T20:43:21.722Z,3.90
2023-08-08T20:45:49.176Z,3.50
2023-08-08T20:48:16.591Z,3.53
2023-08-08T20:50:44.043Z,4.13
2023-08-08T20:53:12.684Z,4.00
2023-08-08T20:55:40.432Z,3.80
2023-08-08T20:58:08.595Z,4.00
2023-08-08T21:00:36.236Z,4.35
2023-08-08T21:03:03.999Z,4.22
2023-08-08T21:05:31.584Z,3.90
2023-08-08T21:07:59.006Z,3.40
2023-08-08T21:10:26.631Z,3.53
2023-08-08T21:12:54.334Z,3.78
2023-08-08T21:15:21.656Z,3.72
2023-08-08T21:17:49.101Z,3.45
2023-08-08T21:20:16.913Z,3.75
2023-08-08T21:22:44.226Z,3.85
2023-08-08T21:25:11.520Z,3.60
2023-08-08T21:27:40.600Z,3.60
2023-08-08T21:30:09.240Z,3.95
2023-08-08T21:32:36.867Z,3.97
2023-08-08T21:35:04.645Z,3.80
2023-08-08T21:37:31.907Z,3.78
2023-08-08T21:39:59.221Z,4.15
2023-08-08T21:42:26.451Z,5.00
2023-08-08T21:44:53.772Z,3.80
2023-08-08T21:47:21.573Z,4.05
2023-08-08T21:49:49.002Z,4.10
2023-08-08T21:52:16.480Z,4.30
2023-08-08T21:54:44.000Z,3.72
2023-08-08T21:57:11.317Z,3.40
2023-08-08T21:59:38.917Z,3.40
2023-08-08T22:02:06.320Z,3.13
2023-08-08T22:04:36.928Z,3.70
2023-08-08T22:07:04.830Z,3.58
2023-08-08T22:09:32.162Z,3.53
2023-08-08T22:11:59.450Z,3.35
2023-08-08T22:14:26.762Z,3.30
2023-08-08T22:16:54.062Z,3.42
2023-08-08T22:19:21.339Z,3.50
2023-08-08T22:21:48.682Z,3.65
2023-08-08T22:24:16.050Z,3.47
2023-08-08T22:26:43.440Z,3.83
2023-08-08T22:29:10.887Z,3.60
2023-08-08T22:31:38.211Z,3.85
2023-08-08T22:34:06.370Z,3.50
2023-08-08T22:36:33.643Z,4.45
2023-08-08T22:39:00.998Z,3.78
2023-08-08T22:41:28.278Z,3.72
2023-08-08T22:43:55.559Z,3.60
2023-08-08T22:46:24.850Z,3.38
2023-08-08T22:48:52.375Z,3.42
2023-08-08T22:51:19.781Z,3.55
2023-08-08T22:53:47.232Z,3.33
2023-08-08T22:56:14.966Z,3.40
2023-08-08T22:58:42.222Z,3.35
2023-08-08T23:01:09.609Z,3.35
2023-08-08T23:03:38.460Z,3.60
2023-08-08T23:06:05.942Z,3.28
2023-08-08T23:08:33.254Z,3.70
2023-08-08T23:11:01.397Z,3.58
2023-08-08T23:13:28.661Z,3.38
2023-08-08T23:15:56.027Z,3.42
2023-08-08T23:18:23.320Z,3.65
2023-08-08T23:20:50.700Z,3.70
2023-08-08T23:23:18.144Z,3.40
2023-08-08T23:25:45.703Z,3.72
2023-08-08T23:28:14.495Z,3.60
2023-08-08T23:30:41.789Z,3.63
2023-08-08T23:33:09.126Z,3.45
2023-08-08T23:35:36.386Z,3.30
2023-08-08T23:38:04.291Z,3.38
2023-08-08T23:40:31.835Z,3.40
2023-08-08T23:42:59.224Z,3.25
2023-08-08T23:45:27.159Z,3.25
2023-08-08T23:47:54.597Z,3.53
2023-08-08T23:50:21.860Z,3.47
2023-08-08T23:52:49.161Z,3.40
2023-08-08T23:55:16.411Z,3.20
2023-08-08T23:57:43.673Z,3.80
